Time;durP1;ratioP1;P1;durP2;ratioP2;P2;SDS_P1;SDS_P2;PMS_P1;PMS_P2;Temp;Humidity;BMP_temperature;BMP_pressure;BME280_temperature;BME280_humidity;BME280_pressure;Samples;Min_cycle;Max_cycle;Signal;HPM_P1;HPM_P2
2023/03/01 00:01:59;;;;;;;9.55;7.28;;;;;;;;;;5100053;28;20175;-80
2023/03/01 00:04:25;;;;;;;9.90;7.10;;;;;;;;;;5083693;28;20182;-81
2023/03/01 00:06:51;;;;;;;12.75;7.90;;;;;;;;;;5100276;28;20274;-80
2023/03/01 00:09:17;;;;;;;17.60;7.67;;;;;;;;;;5101352;28;20195;-80
2023/03/01 00:11:43;;;;;;;9.75;6.80;;;;;;;;;;5117912;28;20797;-81
2023/03/01 00:14:09;;;;;;;8.93;6.57;;;;;;;;;;5099490;28;20178;-80
2023/03/01 00:16:38;;;;;;;11.07;7.38;;;;;;;;;;5117813;28;20481;-80
2023/03/01 00:19:04;;;;;;;10.90;7.47;;;;;;;;;;5116327;28;20250;-80
2023/03/01 00:21:30;;;;;;;9.40;7.30;;;;;;;;;;5100294;28;20218;-80
2023/03/01 00:23:56;;;;;;;11.95;7.28;;;;;;;;;;5097530;28;20177;-80
2023/03/01 00:26:23;;;;;;;10.80;8.05;;;;;;;;;;5096651;28;20179;-80
2023/03/01 00:28:49;;;;;;;8.25;7.38;;;;;;;;;;5115268;28;20167;-81
2023/03/01 00:31:17;;;;;;;11.82;6.85;;;;;;;;;;5114424;28;20491;-80
2023/03/01 00:33:43;;;;;;;12.30;8.07;;;;;;;;;;5114993;28;20190;-81
2023/03/01 00:36:09;;;;;;;10.75;7.55;;;;;;;;;;5080358;28;20558;-80
2023/03/01 00:38:39;;;;;;;11.30;7.90;;;;;;;;;;5080189;28;20190;-80
2023/03/01 00:41:08;;;;;;;10.95;7.53;;;;;;;;;;5114978;28;20194;-81
2023/03/01 00:43:37;;;;;;;8.68;6.85;;;;;;;;;;5117149;28;20256;-80
2023/03/01 00:46:04;;;;;;;11.43;7.80;;;;;;;;;;5119320;28;20171;-80
2023/03/01 00:48:30;;;;;;;9.23;7.07;;;;;;;;;;5101047;28;20685;-80
2023/03/01 00:50:56;;;;;;;19.05;8.40;;;;;;;;;;5100819;28;20224;-80
2023/03/01 00:53:22;;;;;;;11.77;7.57;;;;;;;;;;5100670;28;20175;-80
2023/03/01 00:55:48;;;;;;;11.68;7.00;;;;;;;;;;5119148;28;20480;-80
2023/03/01 00:58:14;;;;;;;13.75;7.97;;;;;;;;;;5118650;28;20194;-80
2023/03/01 01:00:40;;;;;;;11.88;8.85;;;;;;;;;;5118586;28;20179;-80
2023/03/01 01:03:06;;;;;;;10.70;6.43;;;;;;;;;;5099921;28;20639;-80
2023/03/01 01:05:35;;;;;;;13.32;8.57;;;;;;;;;;5118968;28;20231;-81
2023/03/01 01:08:00;;;;;;;10.93;7.38;;;;;;;;;;5118378;28;20172;-81
2023/03/01 01:10:26;;;;;;;9.50;7.33;;;;;;;;;;5100510;28;20198;-82
2023/03/01 01:12:52;;;;;;;9.75;6.82;;;;;;;;;;5118559;28;20405;-81
2023/03/01 01:15:18;;;;;;;8.50;5.73;;;;;;;;;;5100129;28;20179;-81
2023/03/01 01:17:44;;;;;;;10.70;7.30;;;;;;;;;;5118745;28;20477;-82
2023/03/01 01:20:11;;;;;;;9.23;6.50;;;;;;;;;;5118658;28;20172;-81
2023/03/01 01:22:37;;;;;;;8.93;6.35;;;;;;;;;;5118911;28;20497;-81
2023/03/01 01:25:03;;;;;;;9.77;7.73;;;;;;;;;;5118868;28;20199;-81
2023/03/01 01:27:29;;;;;;;9.07;6.80;;;;;;;;;;5100283;28;20408;-81
2023/03/01 01:29:55;;;;;;;10.10;6.35;;;;;;;;;;5118450;28;20179;-81
2023/03/01 01:32:21;;;;;;;10.82;7.30;;;;;;;;;;5082961;28;20232;-82
2023/03/01 01:34:47;;;;;;;9.73;6.70;;;;;;;;;;5100242;28;20178;-82
2023/03/01 01:37:13;;;;;;;9.57;6.82;;;;;;;;;;5117306;28;20220;-81
2023/03/01 01:39:39;;;;;;;10.45;6.28;;;;;;;;;;5118265;28;20523;-81
2023/03/01 01:42:05;;;;;;;9.50;6.53;;;;;;;;;;5099820;28;20199;-81
2023/03/01 01:44:34;;;;;;;10.93;6.87;;;;;;;;;;5099565;28;20404;-81
2023/03/01 01:47:08;;;;;;;10.55;6.50;;;;;;;;;;5117451;28;20484;-81
2023/03/01 01:50:00;;;;;;;12.55;7.53;;;;;;;;;;5117605;28;20535;-81
2023/03/01 01:52:29;;;;;;;9.32;7.05;;;;;;;;;;5113137;28;20199;-81
2023/03/01 01:54:55;;;;;;;10.95;7.47;;;;;;;;;;5117196;28;20170;-81
2023/03/01 01:57:24;;;;;;;12.50;7.10;;;;;;;;;;5116993;28;20199;-81
2023/03/01 01:59:53;;;;;;;10.10;6.93;;;;;;;;;;5117687;28;20408;-81
2023/03/01 02:02:19;;;;;;;8.65;7.13;;;;;;;;;;5117625;28;20255;-81
2023/03/01 02:04:47;;;;;;;11.38;6.88;;;;;;;;;;5117630;28;20579;-81
2023/03/01 02:07:12;;;;;;;10.25;7.47;;;;;;;;;;5117782;28;20164;-81
2023/03/01 02:09:39;;;;;;;12.27;7.87;;;;;;;;;;5117403;28;20243;-81
2023/03/01 02:12:05;;;;;;;7.80;5.40;;;;;;;;;;5099152;28;20406;-81
2023/03/01 02:14:31;;;;;;;13.95;6.28;;;;;;;;;;5117376;28;20562;-81
2023/03/01 02:16:57;;;;;;;10.95;7.53;;;;;;;;;;5117577;28;20215;-80
2023/03/01 02:19:36;;;;;;;10.25;8.02;;;;;;;;;;5101539;28;20171;-80
2023/03/01 02:22:06;;;;;;;9.07;6.72;;;;;;;;;;5117532;28;20171;-80
2023/03/01 02:24:36;;;;;;;8.85;6.70;;;;;;;;;;5098954;28;20197;-80
2023/03/01 02:27:03;;;;;;;11.20;6.65;;;;;;;;;;5117563;28;20220;-80
2023/03/01 02:29:29;;;;;;;9.40;6.45;;;;;;;;;;5116949;28;20175;-80
2023/03/01 02:31:56;;;;;;;20.92;7.60;;;;;;;;;;5116940;28;20167;-81
2023/03/01 02:34:25;;;;;;;9.98;7.20;;;;;;;;;;5116756;28;20168;-81
2023/03/01 02:37:00;;;;;;;10.75;7.63;;;;;;;;;;5116964;28;20585;-80
2023/03/01 02:39:34;;;;;;;11.45;7.60;;;;;;;;;;5116723;28;20508;-81
2023/03/01 02:42:03;;;;;;;10.55;8.80;;;;;;;;;;5117416;28;20249;-81
2023/03/01 02:44:29;;;;;;;9.95;6.90;;;;;;;;;;5097746;28;20614;-80
2023/03/01 02:46:56;;;;;;;8.65;6.30;;;;;;;;;;5116756;28;20171;-80
2023/03/01 02:49:27;;;;;;;12.52;8.18;;;;;;;;;;5116176;28;20171;-80
2023/03/01 02:51:59;;;;;;;14.20;8.00;;;;;;;;;;5098386;28;20179;-80
2023/03/01 02:54:28;;;;;;;10.50;7.25;;;;;;;;;;5116878;28;20255;-80
2023/03/01 02:56:55;;;;;;;14.18;7.30;;;;;;;;;;5098326;28;20298;-80
2023/03/01 02:59:23;;;;;;;12.07;8.05;;;;;;;;;;5116421;28;20520;-80
2023/03/01 03:01:49;;;;;;;11.77;8.15;;;;;;;;;;5116785;28;20197;-80
2023/03/01 03:04:17;;;;;;;10.02;7.55;;;;;;;;;;5097773;28;20179;-80
2023/03/01 03:06:44;;;;;;;11.70;8.00;;;;;;;;;;5097191;28;20231;-79
2023/03/01 03:09:10;;;;;;;13.32;7.95;;;;;;;;;;5116105;28;20309;-80
2023/03/01 03:11:38;;;;;;;10.93;6.90;;;;;;;;;;5097406;28;20171;-79
2023/03/01 03:14:05;;;;;;;10.93;8.13;;;;;;;;;;5115416;28;20168;-80
2023/03/01 03:16:31;;;;;;;12.80;7.30;;;;;;;;;;5115547;28;20250;-80
2023/03/01 03:19:04;;;;;;;10.25;7.60;;;;;;;;;;5097741;28;20179;-79
2023/03/01 03:21:30;;;;;;;9.68;7.53;;;;;;;;;;5099024;28;20172;-79
2023/03/01 03:23:57;;;;;;;9.57;7.38;;;;;;;;;;5099135;28;20175;-80
2023/03/01 03:26:23;;;;;;;9.50;7.80;;;;;;;;;;5099431;28;20263;-79
2023/03/01 03:28:49;;;;;;;12.25;7.40;;;;;;;;;;5101606;28;20182;-81
2023/03/01 03:31:15;;;;;;;12.93;8.25;;;;;;;;;;5100843;28;20211;-82
2023/03/01 03:33:41;;;;;;;9.25;8.05;;;;;;;;;;5098705;28;20172;-82
2023/03/01 03:36:12;;;;;;;10.65;8.07;;;;;;;;;;5081124;28;20708;-79
2023/03/01 03:38:38;;;;;;;11.18;7.22;;;;;;;;;;5115708;28;20574;-81
2023/03/01 03:41:07;;;;;;;11.00;7.97;;;;;;;;;;5115624;28;20198;-80
2023/03/01 03:43:33;;;;;;;15.00;7.85;;;;;;;;;;5114974;28;20171;-81
2023/03/01 03:46:00;;;;;;;8.95;7.10;;;;;;;;;;5097791;28;20184;-81
2023/03/01 03:48:26;;;;;;;12.18;8.02;;;;;;;;;;5115453;28;20202;-81
2023/03/01 03:50:54;;;;;;;11.48;8.15;;;;;;;;;;5115665;28;20167;-81
2023/03/01 03:53:20;;;;;;;11.88;7.70;;;;;;;;;;5115209;28;20182;-81
2023/03/01 03:55:49;;;;;;;10.57;8.10;;;;;;;;;;5097140;28;20202;-81
2023/03/01 03:58:16;;;;;;;11.13;8.18;;;;;;;;;;5097433;28;20205;-81
2023/03/01 04:00:43;;;;;;;16.50;8.82;;;;;;;;;;5097379;28;20182;-82
2023/03/01 04:03:10;;;;;;;13.15;8.30;;;;;;;;;;5096667;28;20251;-81
2023/03/01 04:05:36;;;;;;;11.82;8.75;;;;;;;;;;5115146;28;21084;-81
2023/03/01 04:08:02;;;;;;;11.70;8.15;;;;;;;;;;5115399;28;20174;-81
2023/03/01 04:10:29;;;;;;;14.15;9.20;;;;;;;;;;5096224;28;20228;-81
2023/03/01 04:12:55;;;;;;;12.15;8.13;;;;;;;;;;5115390;28;20555;-81
2023/03/01 04:15:23;;;;;;;13.75;8.30;;;;;;;;;;5114814;28;20170;-81
2023/03/01 04:17:51;;;;;;;14.38;8.77;;;;;;;;;;5115137;28;20258;-81
2023/03/01 04:20:24;;;;;;;15.05;8.77;;;;;;;;;;5096472;28;20646;-81
2023/03/01 04:22:50;;;;;;;15.60;9.55;;;;;;;;;;5115303;28;20190;-82
2023/03/01 04:25:16;;;;;;;16.90;8.23;;;;;;;;;;5096677;28;20176;-81
2023/03/01 04:27:42;;;;;;;13.07;8.65;;;;;;;;;;5115194;28;20223;-81
2023/03/01 04:30:08;;;;;;;13.00;8.70;;;;;;;;;;5115050;28;20191;-81
2023/03/01 04:32:34;;;;;;;13.48;8.43;;;;;;;;;;5115041;28;20225;-81
2023/03/01 04:35:00;;;;;;;14.05;8.00;;;;;;;;;;5096752;28;20187;-81
2023/03/01 04:37:27;;;;;;;13.10;9.63;;;;;;;;;;5096354;28;20199;-81
2023/03/01 04:39:53;;;;;;;14.50;9.00;;;;;;;;;;5115116;28;20170;-81
2023/03/01 04:42:19;;;;;;;14.35;9.18;;;;;;;;;;5096970;28;20519;-82
2023/03/01 04:44:46;;;;;;;12.05;9.15;;;;;;;;;;5114718;28;20616;-81
2023/03/01 04:47:12;;;;;;;14.88;8.77;;;;;;;;;;5115016;28;20171;-82
2023/03/01 04:49:39;;;;;;;13.80;9.30;;;;;;;;;;5114548;28;20183;-81
2023/03/01 04:52:05;;;;;;;12.27;9.55;;;;;;;;;;5114311;28;20233;-82
2023/03/01 04:54:32;;;;;;;17.27;9.30;;;;;;;;;;5114456;28;20163;-81
2023/03/01 04:56:58;;;;;;;13.45;9.43;;;;;;;;;;5115234;28;20588;-81
2023/03/01 04:59:25;;;;;;;15.50;9.18;;;;;;;;;;5114644;28;20207;-81
2023/03/01 05:01:52;;;;;;;13.55;8.45;;;;;;;;;;5114980;28;20172;-81
2023/03/01 05:04:18;;;;;;;14.85;10.02;;;;;;;;;;5114966;28;20618;-81
2023/03/01 05:06:44;;;;;;;15.57;9.15;;;;;;;;;;5095841;28;20621;-81
2023/03/01 05:09:11;;;;;;;15.35;9.85;;;;;;;;;;5096683;28;20179;-81
2023/03/01 05:11:37;;;;;;;13.20;8.95;;;;;;;;;;5096483;28;20168;-81
2023/03/01 05:14:03;;;;;;;11.90;9.05;;;;;;;;;;5096356;28;20179;-81
2023/03/01 05:16:30;;;;;;;18.83;10.07;;;;;;;;;;5114566;28;20341;-81
2023/03/01 05:18:56;;;;;;;11.13;7.60;;;;;;;;;;5114154;28;20269;-81
2023/03/01 05:21:23;;;;;;;15.43;9.70;;;;;;;;;;5096169;28;20183;-81
2023/03/01 05:23:49;;;;;;;13.70;9.95;;;;;;;;;;5114234;28;20176;-81
2023/03/01 05:26:17;;;;;;;15.70;10.10;;;;;;;;;;5079325;28;20186;-81
2023/03/01 05:28:43;;;;;;;15.27;10.00;;;;;;;;;;5114080;28;20690;-81
2023/03/01 05:31:11;;;;;;;17.83;10.00;;;;;;;;;;5117190;28;20167;-81
2023/03/01 05:33:38;;;;;;;13.70;9.93;;;;;;;;;;5117798;28;20179;-81
2023/03/01 05:36:05;;;;;;;14.20;9.25;;;;;;;;;;5117851;28;20238;-81
2023/03/01 05:38:31;;;;;;;15.05;9.50;;;;;;;;;;5118148;28;20631;-81
2023/03/01 05:40:57;;;;;;;13.20;9.60;;;;;;;;;;5099878;28;20179;-81
2023/03/01 05:43:23;;;;;;;15.30;10.70;;;;;;;;;;5117873;28;20175;-81
2023/03/01 05:45:49;;;;;;;16.15;10.13;;;;;;;;;;5117657;28;20413;-81
2023/03/01 05:48:15;;;;;;;17.60;10.17;;;;;;;;;;5117459;28;20650;-81
2023/03/01 05:50:42;;;;;;;15.43;9.77;;;;;;;;;;5117641;28;20426;-81
2023/03/01 05:53:11;;;;;;;15.00;9.70;;;;;;;;;;5117754;28;20167;-81
2023/03/01 05:55:38;;;;;;;14.30;9.50;;;;;;;;;;5099012;28;20535;-82
2023/03/01 05:58:05;;;;;;;16.73;10.95;;;;;;;;;;5117473;28;20171;-82
2023/03/01 06:00:32;;;;;;;14.63;10.60;;;;;;;;;;5117322;28;20166;-81
2023/03/01 06:02:58;;;;;;;14.10;9.18;;;;;;;;;;5117353;28;20310;-81
2023/03/01 06:05:25;;;;;;;16.55;10.10;;;;;;;;;;5117268;28;20582;-81
2023/03/01 06:07:51;;;;;;;15.88;9.60;;;;;;;;;;5117367;28;20179;-81
2023/03/01 06:10:18;;;;;;;14.52;9.95;;;;;;;;;;5082164;28;20172;-81
2023/03/01 06:12:44;;;;;;;19.35;9.35;;;;;;;;;;5117325;28;20176;-81
2023/03/01 06:15:11;;;;;;;14.05;9.82;;;;;;;;;;5117722;28;20172;-81
2023/03/01 06:17:38;;;;;;;16.02;10.23;;;;;;;;;;5099404;28;20294;-81
2023/03/01 06:20:05;;;;;;;16.00;9.52;;;;;;;;;;5098295;28;20220;-81
2023/03/01 06:22:31;;;;;;;19.08;11.48;;;;;;;;;;5116139;28;20174;-81
2023/03/01 06:24:57;;;;;;;19.08;11.20;;;;;;;;;;5098878;28;20187;-81
2023/03/01 06:27:23;;;;;;;18.55;9.93;;;;;;;;;;5116999;28;20176;-81
2023/03/01 06:29:50;;;;;;;16.17;10.63;;;;;;;;;;5116614;28;20176;-81
2023/03/01 06:32:16;;;;;;;14.43;10.43;;;;;;;;;;5116682;28;20516;-82
2023/03/01 06:34:41;;;;;;;19.23;11.23;;;;;;;;;;5116246;28;20183;-81
2023/03/01 06:37:08;;;;;;;20.70;12.90;;;;;;;;;;5097898;28;21014;-81
2023/03/01 06:39:34;;;;;;;16.25;10.15;;;;;;;;;;5116396;28;20197;-81
2023/03/01 06:42:00;;;;;;;15.50;11.77;;;;;;;;;;5098327;28;20190;-81
2023/03/01 06:44:27;;;;;;;18.25;11.48;;;;;;;;;;5097749;28;20188;-81
2023/03/01 06:46:53;;;;;;;22.48;11.05;;;;;;;;;;5116864;28;20180;-81
2023/03/01 06:49:19;;;;;;;14.75;10.68;;;;;;;;;;5116708;28;20528;-82
2023/03/01 06:51:46;;;;;;;15.48;10.32;;;;;;;;;;5116485;28;20190;-81
2023/03/01 06:54:12;;;;;;;18.48;11.40;;;;;;;;;;5116744;28;20175;-81
2023/03/01 06:56:38;;;;;;;15.40;8.82;;;;;;;;;;5116121;28;20199;-79
2023/03/01 06:59:04;;;;;;;14.68;9.65;;;;;;;;;;5097986;28;20650;-81
2023/03/01 07:01:30;;;;;;;18.73;11.38;;;;;;;;;;5116027;28;20167;-81
2023/03/01 07:03:57;;;;;;;15.75;11.55;;;;;;;;;;5116736;28;20195;-81
2023/03/01 07:06:23;;;;;;;17.38;9.77;;;;;;;;;;5116034;28;20722;-82
2023/03/01 07:08:49;;;;;;;14.43;10.82;;;;;;;;;;5116415;28;20171;-81
2023/03/01 07:11:15;;;;;;;16.60;11.27;;;;;;;;;;5097863;28;20524;-81
2023/03/01 07:13:41;;;;;;;21.02;11.18;;;;;;;;;;5115794;28;20233;-81
2023/03/01 07:16:08;;;;;;;21.52;12.10;;;;;;;;;;5116692;28;20246;-82
2023/03/01 07:18:34;;;;;;;15.85;11.40;;;;;;;;;;5118019;28;20516;-81
2023/03/01 07:21:04;;;;;;;24.27;12.60;;;;;;;;;;5099729;28;20260;-82
2023/03/01 07:23:30;;;;;;;16.42;11.20;;;;;;;;;;5118117;28;20171;-82
2023/03/01 07:25:56;;;;;;;17.85;11.48;;;;;;;;;;5119664;28;20224;-81
2023/03/01 07:28:25;;;;;;;18.83;11.00;;;;;;;;;;5081697;28;20574;-82
2023/03/01 07:30:51;;;;;;;17.52;11.55;;;;;;;;;;5098696;28;20727;-82
2023/03/01 07:33:17;;;;;;;15.93;11.10;;;;;;;;;;5116232;28;20179;-82
2023/03/01 07:35:43;;;;;;;19.95;11.00;;;;;;;;;;5115900;28;20183;-82
2023/03/01 07:38:09;;;;;;;17.70;10.60;;;;;;;;;;5115518;28;20256;-82
2023/03/01 07:40:35;;;;;;;17.60;11.07;;;;;;;;;;5097472;28;20203;-82
2023/03/01 07:43:01;;;;;;;14.70;9.25;;;;;;;;;;5097758;28;20176;-82
2023/03/01 07:45:28;;;;;;;20.55;12.07;;;;;;;;;;5097711;28;20233;-82
2023/03/01 07:47:55;;;;;;;16.35;11.63;;;;;;;;;;5097606;28;20225;-82
2023/03/01 07:50:21;;;;;;;17.42;11.32;;;;;;;;;;5115513;28;20521;-82
2023/03/01 07:52:47;;;;;;;19.05;11.15;;;;;;;;;;5096398;28;20262;-80
2023/03/01 07:55:14;;;;;;;20.95;12.15;;;;;;;;;;5114813;28;20186;-80
2023/03/01 07:57:40;;;;;;;16.55;10.65;;;;;;;;;;5096050;28;20290;-80
2023/03/01 08:00:06;;;;;;;15.63;11.27;;;;;;;;;;5115671;28;20224;-80
2023/03/01 08:02:32;;;;;;;14.60;10.50;;;;;;;;;;5115561;28;20221;-79
2023/03/01 08:04:58;;;;;;;16.35;11.63;;;;;;;;;;5114786;28;20578;-80
2023/03/01 08:07:24;;;;;;;18.13;11.77;;;;;;;;;;5115398;28;20194;-80
2023/03/01 08:09:50;;;;;;;16.77;11.20;;;;;;;;;;5115424;28;20179;-79
2023/03/01 08:12:16;;;;;;;17.95;10.60;;;;;;;;;;5081603;28;20175;-80
2023/03/01 08:14:42;;;;;;;18.45;11.40;;;;;;;;;;5114656;28;20183;-79
2023/03/01 08:17:08;;;;;;;14.15;10.35;;;;;;;;;;5096006;28;20207;-79
2023/03/01 08:19:34;;;;;;;16.85;10.73;;;;;;;;;;5080354;28;20267;-84
2023/03/01 08:22:02;;;;;;;15.07;10.43;;;;;;;;;;5116575;28;20210;-86
2023/03/01 08:24:28;;;;;;;16.73;9.77;;;;;;;;;;5116178;28;20646;-85
2023/03/01 08:26:54;;;;;;;17.75;10.57;;;;;;;;;;5116437;28;20700;-87
2023/03/01 08:29:20;;;;;;;17.05;9.90;;;;;;;;;;5098089;28;20172;-86
2023/03/01 08:31:46;;;;;;;19.58;11.73;;;;;;;;;;5114769;28;20181;-86
2023/03/01 08:34:13;;;;;;;20.48;11.35;;;;;;;;;;5097208;28;20569;-86
2023/03/01 08:36:41;;;;;;;20.42;12.38;;;;;;;;;;5116072;28;20204;-86
2023/03/01 08:39:07;;;;;;;14.32;10.10;;;;;;;;;;5092410;28;20206;-86
2023/03/01 08:41:34;;;;;;;18.98;10.77;;;;;;;;;;5107020;28;20226;-86
2023/03/01 08:44:00;;;;;;;16.17;11.23;;;;;;;;;;5106656;28;20167;-87
2023/03/01 08:46:30;;;;;;;14.88;10.50;;;;;;;;;;5106708;28;20228;-86
2023/03/01 08:48:56;;;;;;;19.42;11.25;;;;;;;;;;5084394;28;20262;-87
2023/03/01 08:51:22;;;;;;;19.05;11.20;;;;;;;;;;5089290;28;20255;-86
2023/03/01 08:53:48;;;;;;;18.23;10.55;;;;;;;;;;5088348;28;20250;-87
2023/03/01 08:56:15;;;;;;;18.48;11.23;;;;;;;;;;5102565;28;20205;-88
2023/03/01 08:58:44;;;;;;;14.52;10.02;;;;;;;;;;5108166;28;20177;-86
2023/03/01 09:01:10;;;;;;;16.65;11.57;;;;;;;;;;5105506;28;20180;-85
2023/03/01 09:03:36;;;;;;;12.77;10.77;;;;;;;;;;5105931;28;20181;-86
2023/03/01 09:06:03;;;;;;;17.38;12.07;;;;;;;;;;5107052;28;20226;-86
2023/03/01 09:08:29;;;;;;;15.85;11.15;;;;;;;;;;5107729;28;20183;-86
2023/03/01 09:10:56;;;;;;;17.52;11.32;;;;;;;;;;5090613;28;20172;-86
2023/03/01 09:13:24;;;;;;;14.13;11.32;;;;;;;;;;5109435;28;20168;-86
2023/03/01 09:15:51;;;;;;;18.10;11.60;;;;;;;;;;5089550;28;20171;-86
2023/03/01 09:18:17;;;;;;;16.50;11.80;;;;;;;;;;5098365;28;20180;-87
2023/03/01 09:20:42;;;;;;;20.90;12.50;;;;;;;;;;5123965;28;20188;-85
2023/03/01 09:23:08;;;;;;;18.63;11.57;;;;;;;;;;5126245;28;20404;-86
2023/03/01 09:25:35;;;;;;;22.30;10.70;;;;;;;;;;5127578;28;20182;-85
2023/03/01 09:28:01;;;;;;;20.48;12.38;;;;;;;;;;5122906;28;20175;-85
2023/03/01 09:30:27;;;;;;;15.88;12.50;;;;;;;;;;5122115;28;20529;-85
2023/03/01 09:32:53;;;;;;;15.50;11.27;;;;;;;;;;5121340;28;20564;-86
2023/03/01 09:35:19;;;;;;;13.40;9.97;;;;;;;;;;5102737;28;20184;-86
2023/03/01 09:37:46;;;;;;;18.30;10.13;;;;;;;;;;5100235;28;20523;-85
2023/03/01 09:40:22;;;;;;;15.68;11.00;;;;;;;;;;5116592;28;20237;-85
2023/03/01 09:43:03;;;;;;;16.70;10.50;;;;;;;;;;5110364;28;20186;-86
2023/03/01 09:45:38;;;;;;;13.35;10.48;;;;;;;;;;5111754;28;20180;-86
2023/03/01 09:48:06;;;;;;;19.45;10.90;;;;;;;;;;5107476;28;20176;-86
2023/03/01 09:50:35;;;;;;;13.70;9.18;;;;;;;;;;5089845;28;20168;-86
2023/03/01 09:53:05;;;;;;;16.23;9.20;;;;;;;;;;5093234;28;20225;-87
2023/03/01 09:55:40;;;;;;;13.57;10.55;;;;;;;;;;5093305;28;20175;-88
2023/03/01 09:58:18;;;;;;;11.93;10.32;;;;;;;;;;5110589;28;20214;-87
2023/03/01 10:00:45;;;;;;;16.52;10.13;;;;;;;;;;5108184;28;20240;-88
2023/03/01 10:03:15;;;;;;;19.30;9.93;;;;;;;;;;5109304;28;20240;-87
2023/03/01 10:06:08;;;;;;;16.52;10.02;;;;;;;;;;5097989;28;20248;-87
2023/03/01 10:08:48;;;;;;;16.92;11.48;;;;;;;;;;5108499;28;20266;-87
2023/03/01 10:11:25;;;;;;;13.70;10.97;;;;;;;;;;5113604;28;20217;-87
2023/03/01 10:14:00;;;;;;;13.87;9.83;;;;;;;;;;5107979;28;20456;-86
2023/03/01 10:16:34;;;;;;;11.63;9.30;;;;;;;;;;5110118;28;20854;-87
2023/03/01 10:19:02;;;;;;;15.33;10.63;;;;;;;;;;5115262;28;20463;-88
2023/03/01 10:21:31;;;;;;;14.33;9.37;;;;;;;;;;5122841;28;20400;-87
2023/03/01 10:24:00;;;;;;;9.50;8.37;;;;;;;;;;5120130;28;20410;-87
2023/03/01 10:26:33;;;;;;;10.83;8.17;;;;;;;;;;5122154;28;20888;-87
2023/03/01 10:29:00;;;;;;;10.37;8.70;;;;;;;;;;5120514;28;20930;-89
2023/03/01 10:31:29;;;;;;;10.83;8.00;;;;;;;;;;5121026;28;20405;-90
2023/03/01 10:33:56;;;;;;;10.60;9.03;;;;;;;;;;5119796;28;20410;-88
2023/03/01 10:36:22;;;;;;;12.70;9.07;;;;;;;;;;5119440;28;20465;-86
2023/03/01 10:38:52;;;;;;;10.20;8.00;;;;;;;;;;5118516;28;20435;-86
2023/03/01 10:41:18;;;;;;;10.50;8.20;;;;;;;;;;5102033;28;20424;-86
2023/03/01 10:43:48;;;;;;;13.20;9.00;;;;;;;;;;5100334;28;20413;-86
2023/03/01 10:46:23;;;;;;;9.80;8.63;;;;;;;;;;5118497;28;20754;-86
2023/03/01 10:49:13;;;;;;;10.20;7.97;;;;;;;;;;5119145;28;20409;-86
2023/03/01 10:51:41;;;;;;;12.83;8.27;;;;;;;;;;5117826;28;20461;-86
2023/03/01 10:54:16;;;;;;;9.53;7.50;;;;;;;;;;5100984;28;20417;-86
2023/03/01 10:56:53;;;;;;;11.07;8.13;;;;;;;;;;5101859;28;20865;-86
2023/03/01 10:59:26;;;;;;;10.37;8.60;;;;;;;;;;5102069;28;20459;-86
2023/03/01 11:02:04;;;;;;;9.57;8.57;;;;;;;;;;5120777;28;20405;-88
2023/03/01 11:04:29;;;;;;;12.13;8.70;;;;;;;;;;5121174;28;20427;-87
2023/03/01 11:07:00;;;;;;;9.70;8.00;;;;;;;;;;5123351;28;20412;-87
2023/03/01 11:09:31;;;;;;;10.40;8.50;;;;;;;;;;5109968;28;20417;-89
2023/03/01 11:12:00;;;;;;;15.17;8.73;;;;;;;;;;5129686;28;20469;-88
2023/03/01 11:14:27;;;;;;;10.30;8.37;;;;;;;;;;5126373;28;20401;-86
2023/03/01 11:17:04;;;;;;;13.20;8.77;;;;;;;;;;5103306;28;20457;-83
2023/03/01 11:19:31;;;;;;;9.37;8.43;;;;;;;;;;5123845;28;20405;-85
2023/03/01 11:22:03;;;;;;;10.63;8.63;;;;;;;;;;5107901;28;20786;-87
2023/03/01 11:24:35;;;;;;;13.77;9.23;;;;;;;;;;5107767;28;20416;-86
2023/03/01 11:27:04;;;;;;;12.90;9.50;;;;;;;;;;5122482;28;20408;-87
2023/03/01 11:29:38;;;;;;;16.33;9.37;;;;;;;;;;5122653;28;20398;-86
2023/03/01 11:32:07;;;;;;;11.53;8.87;;;;;;;;;;5121499;28;20404;-86
2023/03/01 11:34:39;;;;;;;13.03;8.73;;;;;;;;;;5118879;28;20546;-85
2023/03/01 11:37:11;;;;;;;10.70;9.03;;;;;;;;;;5112527;28;20457;-85
2023/03/01 11:39:56;;;;;;;12.20;9.60;;;;;;;;;;5113304;28;20398;-85
2023/03/01 11:42:29;;;;;;;13.97;8.90;;;;;;;;;;5078429;28;20389;-85
2023/03/01 11:44:56;;;;;;;10.97;8.70;;;;;;;;;;5095110;28;20399;-84
2023/03/01 11:47:32;;;;;;;10.97;8.90;;;;;;;;;;5078189;28;20409;-85
2023/03/01 11:50:18;;;;;;;12.40;9.47;;;;;;;;;;5106822;28;20409;-85
2023/03/01 11:52:49;;;;;;;12.07;10.03;;;;;;;;;;5098494;28;20799;-84
2023/03/01 11:55:15;;;;;;;10.57;8.17;;;;;;;;;;5095548;28;20491;-85
2023/03/01 11:57:59;;;;;;;11.20;9.70;;;;;;;;;;5095936;28;20900;-84
2023/03/01 12:00:31;;;;;;;13.40;10.30;;;;;;;;;;5077441;28;20566;-85
2023/03/01 12:03:17;;;;;;;9.80;8.80;;;;;;;;;;5095114;28;20410;-85
2023/03/01 12:05:46;;;;;;;10.20;8.93;;;;;;;;;;5093450;28;20826;-85
2023/03/01 12:08:12;;;;;;;11.00;9.07;;;;;;;;;;5094095;28;20405;-84
2023/03/01 12:10:38;;;;;;;14.50;10.00;;;;;;;;;;5095022;28;20411;-85
2023/03/01 12:13:13;;;;;;;10.53;8.73;;;;;;;;;;5094061;28;20406;-84
2023/03/01 12:15:51;;;;;;;10.43;7.50;;;;;;;;;;5094142;28;20430;-83
2023/03/01 12:18:20;;;;;;;10.00;8.10;;;;;;;;;;5094259;28;20425;-84
2023/03/01 12:20:46;;;;;;;10.20;7.70;;;;;;;;;;5095224;28;20420;-84
2023/03/01 12:23:18;;;;;;;10.97;9.80;;;;;;;;;;5094797;28;20410;-83
2023/03/01 12:26:03;;;;;;;11.03;8.67;;;;;;;;;;5094441;28;20452;-83
2023/03/01 12:28:51;;;;;;;11.20;8.77;;;;;;;;;;5076567;28;20502;-83
2023/03/01 12:31:25;;;;;;;8.50;7.70;;;;;;;;;;5094444;28;20501;-83
2023/03/01 12:34:10;;;;;;;8.73;7.57;;;;;;;;;;5093905;28;20575;-83
2023/03/01 12:36:44;;;;;;;10.33;7.80;;;;;;;;;;5094164;28;20436;-83
2023/03/01 12:39:24;;;;;;;11.63;7.70;;;;;;;;;;5095524;28;20798;-83
2023/03/01 12:42:01;;;;;;;10.80;8.70;;;;;;;;;;5080584;28;20921;-84
2023/03/01 12:44:33;;;;;;;10.40;8.33;;;;;;;;;;5082111;28;20409;-83
2023/03/01 12:47:05;;;;;;;12.30;8.80;;;;;;;;;;5079589;28;20429;-84
2023/03/01 12:49:34;;;;;;;10.33;7.20;;;;;;;;;;5098324;28;20511;-82
2023/03/01 12:52:02;;;;;;;11.00;7.90;;;;;;;;;;5097775;28;20402;-80
2023/03/01 12:54:32;;;;;;;10.60;7.77;;;;;;;;;;5097578;28;20924;-84
2023/03/01 12:57:00;;;;;;;10.47;8.50;;;;;;;;;;5097840;28;20432;-83
2023/03/01 12:59:40;;;;;;;9.70;7.77;;;;;;;;;;5097925;28;20433;-81
2023/03/01 13:02:09;;;;;;;10.97;7.90;;;;;;;;;;5098532;28;20408;-80
2023/03/01 13:05:11;;;;;;;12.63;7.70;;;;;;;;;;5097458;28;20422;-80
2023/03/01 13:07:56;;;;;;;7.63;6.63;;;;;;;;;;4995811;28;20533;-83
2023/03/01 13:10:24;;;;;;;9.47;7.57;;;;;;;;;;5090760;28;20499;-85
2023/03/01 13:13:02;;;;;;;8.53;7.27;;;;;;;;;;5079519;28;20468;-83
2023/03/01 13:15:39;;;;;;;12.73;8.17;;;;;;;;;;5097982;28;20398;-86
2023/03/01 13:18:25;;;;;;;11.13;8.50;;;;;;;;;;5100263;28;20547;-84
2023/03/01 13:20:58;;;;;;;9.00;8.10;;;;;;;;;;5080112;28;20771;-84
2023/03/01 13:23:32;;;;;;;9.43;8.43;;;;;;;;;;5079728;28;20776;-82
2023/03/01 13:25:58;;;;;;;10.17;8.17;;;;;;;;;;5079292;28;20418;-83
2023/03/01 13:28:36;;;;;;;10.83;8.00;;;;;;;;;;5098185;28;20412;-84
2023/03/01 13:31:03;;;;;;;12.03;9.57;;;;;;;;;;5097183;28;20377;-84
2023/03/01 13:33:29;;;;;;;10.97;9.20;;;;;;;;;;5097152;28;20402;-84
2023/03/01 13:35:56;;;;;;;11.10;9.43;;;;;;;;;;5096909;28;20444;-84
2023/03/01 13:38:37;;;;;;;11.90;9.70;;;;;;;;;;5097158;28;20768;-84
2023/03/01 13:41:04;;;;;;;14.77;10.37;;;;;;;;;;5096866;28;20497;-84
2023/03/01 13:43:35;;;;;;;10.63;9.53;;;;;;;;;;5078775;28;20971;-84
2023/03/01 13:46:02;;;;;;;11.00;8.53;;;;;;;;;;5079402;28;20899;-84
2023/03/01 13:48:29;;;;;;;11.47;9.43;;;;;;;;;;5079411;28;20828;-84
2023/03/01 13:51:00;;;;;;;10.03;8.40;;;;;;;;;;5095355;28;20746;-83
2023/03/01 13:53:28;;;;;;;11.43;10.13;;;;;;;;;;5078437;28;20421;-82
2023/03/01 13:56:14;;;;;;;13.17;10.13;;;;;;;;;;5096120;28;20410;-83
2023/03/01 13:58:49;;;;;;;9.83;8.83;;;;;;;;;;5078031;28;20403;-83
2023/03/01 14:01:21;;;;;;;10.97;8.90;;;;;;;;;;5078395;28;20496;-82
2023/03/01 14:03:47;;;;;;;17.13;9.77;;;;;;;;;;5096478;28;20436;-81
2023/03/01 14:06:18;;;;;;;10.03;8.80;;;;;;;;;;5077726;28;20466;-82
2023/03/01 14:08:47;;;;;;;12.67;9.73;;;;;;;;;;5078526;28;20494;-82
2023/03/01 14:11:28;;;;;;;12.40;9.17;;;;;;;;;;5097003;28;20399;-85
2023/03/01 14:14:06;;;;;;;10.43;8.57;;;;;;;;;;5078951;28;20761;-84
2023/03/01 14:16:35;;;;;;;12.60;9.03;;;;;;;;;;5078662;28;20461;-83
2023/03/01 14:19:25;;;;;;;11.30;8.20;;;;;;;;;;5078433;28;20820;-84
2023/03/01 14:22:00;;;;;;;11.80;8.93;;;;;;;;;;5078455;28;20442;-84
2023/03/01 14:24:27;;;;;;;9.53;7.93;;;;;;;;;;5082717;28;20421;-83
2023/03/01 14:26:53;;;;;;;8.70;7.80;;;;;;;;;;5079022;28;20413;-83
2023/03/01 14:29:34;;;;;;;9.73;8.60;;;;;;;;;;5081263;28;20423;-84
2023/03/01 14:32:19;;;;;;;9.03;7.53;;;;;;;;;;5079262;28;20398;-83
2023/03/01 14:34:46;;;;;;;9.13;7.83;;;;;;;;;;5092007;28;20417;-83
2023/03/01 14:37:19;;;;;;;9.70;8.33;;;;;;;;;;5116156;28;20460;-82
2023/03/01 14:39:45;;;;;;;8.33;7.50;;;;;;;;;;5116446;28;20390;-82